Time;durP1;ratioP1;P1;durP2;ratioP2;P2;SDS_P1;SDS_P2;PMS_P1;PMS_P2;Temp;Humidity;BMP_temperature;BMP_pressure;BME280_temperature;BME280_humidity;BME280_pressure;Samples;Min_cycle;Max_cycle;Signal;HPM_P1;HPM_P2
2023/12/27 19:49:33;;;;;;;14.68;6.43;;;19.00;53.10;;;;;;5086993;27;20806;-67
2023/12/27 19:51:59;;;;;;;14.07;5.85;;;19.10;53.00;;;;;;5076150;28;20055;-68
2023/12/27 19:54:25;;;;;;;16.05;5.70;;;19.10;53.30;;;;;;5067303;28;20480;-65
2023/12/27 19:56:51;;;;;;;20.20;6.05;;;19.10;53.30;;;;;;5068496;28;20031;-67
2023/12/27 19:59:18;;;;;;;13.68;6.35;;;19.20;54.20;;;;;;5048913;28;20029;-61
2023/12/27 20:01:44;;;;;;;16.95;6.03;;;19.20;53.90;;;;;;5055052;28;20025;-59
2023/12/27 20:04:10;;;;;;;22.92;6.22;;;19.30;54.60;;;;;;5050793;28;20456;-59
2023/12/27 20:06:39;;;;;;;20.17;6.28;;;19.30;54.20;;;;;;5049609;28;20059;-59
2023/12/27 20:09:05;;;;;;;17.40;5.80;;;19.30;54.00;;;;;;5048963;28;20037;-59
2023/12/27 20:11:32;;;;;;;14.77;5.60;;;19.30;54.30;;;;;;5045819;28;20357;-59
2023/12/27 20:13:58;;;;;;;20.33;5.82;;;19.30;54.30;;;;;;5046058;28;20099;-59
2023/12/27 20:16:27;;;;;;;27.95;6.75;;;19.40;54.50;;;;;;5052018;28;20047;-59
2023/12/27 20:18:53;;;;;;;17.42;6.07;;;19.30;54.40;;;;;;5055211;28;20492;-59
2023/12/27 20:21:20;;;;;;;17.75;6.25;;;19.40;54.50;;;;;;5051182;28;20108;-60
2023/12/27 20:23:47;;;;;;;19.17;6.32;;;19.40;54.70;;;;;;5053495;28;20146;-59
2023/12/27 20:26:13;;;;;;;13.57;5.65;;;19.40;54.60;;;;;;5047285;28;20130;-60
2023/12/27 20:28:40;;;;;;;18.35;6.53;;;19.50;54.50;;;;;;5053027;28;20033;-59
2023/12/27 20:31:07;;;;;;;17.02;6.15;;;19.40;54.50;;;;;;5044495;28;20029;-60
2023/12/27 20:33:34;;;;;;;15.63;5.80;;;19.40;54.30;;;;;;5045657;28;20036;-60
2023/12/27 20:36:02;;;;;;;19.10;6.10;;;19.40;54.40;;;;;;5043746;28;20064;-61
2023/12/27 20:38:28;;;;;;;15.95;6.03;;;19.40;54.60;;;;;;5044756;28;20798;-60
2023/12/27 20:40:54;;;;;;;14.38;6.10;;;19.40;54.60;;;;;;5035564;28;20025;-61
2023/12/27 20:43:20;;;;;;;16.45;6.00;;;19.40;54.70;;;;;;5056040;28;20036;-59
2023/12/27 20:45:49;;;;;;;15.43;6.18;;;19.50;54.70;;;;;;5060024;28;20025;-58
2023/12/27 20:48:16;;;;;;;18.77;5.43;;;19.50;54.80;;;;;;5058085;28;20075;-61
2023/12/27 20:50:42;;;;;;;13.57;5.90;;;19.50;54.70;;;;;;5042541;28;20064;-60
2023/12/27 20:53:08;;;;;;;15.05;5.78;;;19.60;55.20;;;;;;5039029;28;20606;-60
2023/12/27 20:55:37;;;;;;;19.30;6.18;;;19.70;56.10;;;;;;5041481;28;20032;-62
2023/12/27 20:58:03;;;;;;;18.90;6.37;;;19.70;56.30;;;;;;5043494;28;20033;-61
2023/12/27 21:00:29;;;;;;;14.43;6.35;;;19.80;56.00;;;;;;5036250;28;20096;-61
2023/12/27 21:02:55;;;;;;;14.05;6.70;;;19.80;56.70;;;;;;5039737;28;20931;-60
2023/12/27 21:05:21;;;;;;;17.40;7.78;;;19.80;56.50;;;;;;5034908;28;20040;-60
2023/12/27 21:07:47;;;;;;;18.50;6.80;;;19.80;59.80;;;;;;5045438;28;20826;-60
2023/12/27 21:10:13;;;;;;;16.30;6.35;;;19.80;59.70;;;;;;5042239;28;20028;-60
2023/12/27 21:12:41;;;;;;;18.13;6.82;;;19.70;57.90;;;;;;5043456;28;20028;-60
2023/12/27 21:15:08;;;;;;;13.30;5.93;;;19.70;58.50;;;;;;5042745;28;20029;-60
2023/12/27 21:17:36;;;;;;;16.52;6.10;;;19.70;58.40;;;;;;5046333;28;20036;-60
2023/12/27 21:20:04;;;;;;;14.93;6.22;;;19.70;58.60;;;;;;5047565;28;20048;-60
2023/12/27 21:22:33;;;;;;;18.67;5.70;;;19.70;57.60;;;;;;5054676;28;20037;-61
2023/12/27 21:24:59;;;;;;;20.02;6.03;;;19.60;57.80;;;;;;5048796;28;20040;-61
2023/12/27 21:27:26;;;;;;;17.15;6.13;;;19.60;58.10;;;;;;5047547;28;20110;-60
2023/12/27 21:29:54;;;;;;;19.80;6.25;;;19.60;58.00;;;;;;5057231;28;20494;-61
2023/12/27 21:32:22;;;;;;;13.48;5.88;;;19.60;58.20;;;;;;5052923;28;20029;-60
2023/12/27 21:34:47;;;;;;;12.68;6.03;;;19.50;58.00;;;;;;5050201;28;20029;-61
2023/12/27 21:37:14;;;;;;;13.48;5.65;;;19.50;57.80;;;;;;5046999;28;20407;-61
2023/12/27 21:39:40;;;;;;;12.48;5.53;;;19.50;57.80;;;;;;5047403;28;20290;-61
2023/12/27 21:42:06;;;;;;;15.70;5.40;;;19.50;57.60;;;;;;5054290;28;20017;-61
2023/12/27 21:44:33;;;;;;;14.45;5.75;;;19.50;57.60;;;;;;5049096;28;20032;-61
2023/12/27 21:47:00;;;;;;;14.70;5.57;;;19.50;58.90;;;;;;5047696;28;20035;-61
2023/12/27 21:49:26;;;;;;;13.18;5.38;;;19.50;57.90;;;;;;5042419;28;20053;-61
2023/12/27 21:51:52;;;;;;;11.52;5.03;;;19.40;57.70;;;;;;5055930;28;20088;-61
2023/12/27 21:54:18;;;;;;;14.60;5.68;;;19.40;57.70;;;;;;5050769;28;20028;-61
2023/12/27 21:56:44;;;;;;;12.05;5.45;;;19.40;57.70;;;;;;5047059;28;20021;-61
2023/12/27 21:59:10;;;;;;;12.98;5.43;;;19.40;57.40;;;;;;5046237;28;20187;-61
2023/12/27 22:01:36;;;;;;;17.10;5.78;;;19.30;57.80;;;;;;5051240;28;20032;-61
2023/12/27 22:04:04;;;;;;;14.13;6.13;;;19.30;57.60;;;;;;5050271;28;20472;-61
2023/12/27 22:06:33;;;;;;;13.93;5.50;;;19.30;57.60;;;;;;5042283;28;20025;-61
2023/12/27 22:08:59;;;;;;;11.32;4.55;;;19.30;57.20;;;;;;5045619;28;20455;-61
2023/12/27 22:11:25;;;;;;;12.80;5.50;;;19.40;57.30;;;;;;5049524;28;20155;-61
2023/12/27 22:13:51;;;;;;;15.10;5.35;;;19.40;57.50;;;;;;5051102;28;20035;-61
2023/12/27 22:16:17;;;;;;;11.10;4.78;;;19.30;57.80;;;;;;5050187;28;20476;-61
2023/12/27 22:18:45;;;;;;;17.65;5.30;;;19.30;58.00;;;;;;5044914;28;20084;-61
2023/12/27 22:21:18;;;;;;;13.25;5.30;;;19.30;57.60;;;;;;5043518;28;20092;-61
2023/12/27 22:23:46;;;;;;;13.45;5.45;;;19.30;57.40;;;;;;5044182;28;20033;-61
2023/12/27 22:26:13;;;;;;;10.55;4.82;;;19.30;57.40;;;;;;5045093;28;20079;-61
2023/12/27 22:28:39;;;;;;;13.10;4.53;;;19.30;57.40;;;;;;5051617;28;20463;-60
2023/12/27 22:31:05;;;;;;;11.68;4.95;;;19.30;57.30;;;;;;5050734;28;20067;-59
2023/12/27 22:33:30;;;;;;;10.95;4.80;;;19.30;56.80;;;;;;5049664;28;20048;-61
2023/12/27 22:35:56;;;;;;;15.82;5.00;;;19.30;57.30;;;;;;5049550;28;20025;-61
2023/12/27 22:38:23;;;;;;;12.18;4.43;;;19.30;56.70;;;;;;5046357;28;20083;-60
2023/12/27 22:40:49;;;;;;;10.85;4.75;;;19.30;56.90;;;;;;5041690;28;20028;-61
2023/12/27 22:43:15;;;;;;;12.57;4.68;;;19.30;56.60;;;;;;5049456;28;20043;-61
2023/12/27 22:45:41;;;;;;;13.48;5.15;;;19.30;56.90;;;;;;5046806;28;20025;-61
2023/12/27 22:48:07;;;;;;;10.60;4.90;;;19.20;56.60;;;;;;5050645;28;20045;-60
2023/12/27 22:50:35;;;;;;;10.55;4.88;;;19.30;56.40;;;;;;5044894;28;20030;-60
2023/12/27 22:53:01;;;;;;;11.30;4.03;;;19.20;56.50;;;;;;5047489;28;20063;-61
2023/12/27 22:55:26;;;;;;;12.20;4.40;;;19.30;56.70;;;;;;5043910;28;20025;-57
2023/12/27 22:57:52;;;;;;;15.10;5.28;;;19.20;56.30;;;;;;5045929;28;20480;-60
2023/12/27 23:00:20;;;;;;;9.57;4.88;;;19.30;56.70;;;;;;5046726;28;20147;-58
2023/12/27 23:02:47;;;;;;;18.05;4.80;;;19.30;57.00;;;;;;5053912;28;20028;-60
2023/12/27 23:05:13;;;;;;;9.40;4.25;;;19.30;56.70;;;;;;5043934;28;20030;-61
2023/12/27 23:07:39;;;;;;;13.18;4.20;;;19.20;56.60;;;;;;5048889;28;20036;-61
2023/12/27 23:10:05;;;;;;;12.15;4.72;;;19.20;56.60;;;;;;5036652;28;20037;-60
2023/12/27 23:12:33;;;;;;;12.80;4.63;;;19.30;56.50;;;;;;5047649;28;20518;-59
2023/12/27 23:14:58;;;;;;;10.98;4.80;;;19.30;56.60;;;;;;5051568;28;20472;-61
2023/12/27 23:17:24;;;;;;;10.15;4.30;;;19.20;56.60;;;;;;5051536;28;20108;-60
2023/12/27 23:19:50;;;;;;;11.00;4.28;;;19.20;56.60;;;;;;5046469;28;20063;-60
2023/12/27 23:22:17;;;;;;;11.07;4.05;;;19.20;56.50;;;;;;5043935;28;20386;-61
2023/12/27 23:24:43;;;;;;;7.78;3.90;;;19.20;56.50;;;;;;5051208;28;20036;-58
2023/12/27 23:27:10;;;;;;;9.70;4.25;;;19.20;56.40;;;;;;5049568;28;20059;-60
2023/12/27 23:29:36;;;;;;;9.57;4.10;;;19.20;56.40;;;;;;5049756;28;20445;-61
2023/12/27 23:32:02;;;;;;;11.32;4.18;;;19.20;56.50;;;;;;5046401;28;20088;-62
2023/12/27 23:34:28;;;;;;;12.20;3.85;;;19.30;58.20;;;;;;5041305;28;20037;-60
2023/12/27 23:36:54;;;;;;;10.25;4.32;;;19.30;57.30;;;;;;5050644;28;20112;-62
2023/12/27 23:39:19;;;;;;;11.00;4.50;;;19.30;57.00;;;;;;5048738;28;20025;-61
2023/12/27 23:41:45;;;;;;;11.57;4.32;;;19.30;56.90;;;;;;5050079;28;20025;-62
2023/12/27 23:44:13;;;;;;;10.27;3.88;;;19.30;56.70;;;;;;5041277;28;20086;-62
2023/12/27 23:46:39;;;;;;;9.77;4.10;;;19.20;56.90;;;;;;5048784;28;20048;-62
2023/12/27 23:49:05;;;;;;;10.60;4.28;;;19.20;56.60;;;;;;5050698;28;20095;-62
2023/12/27 23:51:33;;;;;;;9.90;4.20;;;19.20;57.30;;;;;;5046049;28;20496;-58
2023/12/27 23:54:00;;;;;;;16.48;4.63;;;19.20;57.00;;;;;;5049999;28;20122;-60
2023/12/27 23:56:28;;;;;;;13.70;4.25;;;19.20;56.90;;;;;;5044686;28;20464;-62
2023/12/27 23:58:54;;;;;;;14.98;4.07;;;19.10;53.80;;;;;;5049640;28;20052;-62
